SBFL/FLN METAR and TAF weather

Enter ICAO airport designator
Station Type Date Time Source
SBFL METAR 2021/09/24 07:00 UTC NOAA

SBFL 240700Z 31006KT 9999 BKN030 17/11 Q1018


Station Type Date Time Source
SBFL Decoded METAR 2021/09/24 07:00 UTC NOAA

Florianopolis Aeroporto , Brazil (SBFL) 27-40S 048-33W 5M
Sep 24, 2021 - 03:00 AM EDT / 2021.09.24 0700 UTC
Wind: from the NW (310 degrees) at 7 MPH (6 KT):0
Visibility: greater than 7 mile(s):0
Sky conditions: mostly cloudy
Temperature: 62 F (17 C)
Dew Point: 51 F (11 C)
Relative Humidity: 67%
Pressure (altimeter): 30.06 in. Hg (1018 hPa)
ob: SBFL 240700Z 31006KT 9999 BKN030 17/11 Q1018
cycle: 7

Station Type Date Time Source
SBFL TAF 2021/09/24 06:09 UTC NOAA

TAF SBFL 240300Z 2406/2506 33005KT 9999 SCT025 TN16/2409Z TX20/2417Z PROB40
TEMPO 2407/2410 4000 RA BKN010
BECMG 2410/2412 36005KT BKN020
BECMG 2415/2417 03005KT SCT030
BECMG 2422/2424 33005KT
RMK PEH

Example: see airport list